Time;durP1;ratioP1;P1;durP2;ratioP2;P2;SDS_P1;SDS_P2;PMS_P1;PMS_P2;Temp;Humidity;BMP_temperature;BMP_pressure;BME280_temperature;BME280_humidity;BME280_pressure;Samples;Min_cycle;Max_cycle;Signal;HPM_P1;HPM_P2
2021/10/04 00:01:40;;;;;;;4.95;2.88;;;;;;;8.89;100.00;95511.06;10280870;28;20022;-73
2021/10/04 00:06:40;;;;;;;7.20;3.00;;;;;;;8.88;100.00;95511.31;10278291;28;20030;-66
2021/10/04 00:11:41;;;;;;;3.77;2.53;;;;;;;8.91;100.00;95507.34;10263908;28;20035;-71
2021/10/04 00:16:41;;;;;;;3.70;2.72;;;;;;;8.74;100.00;95512.69;10279844;28;20282;-67
2021/10/04 00:21:42;;;;;;;5.90;3.40;;;;;;;8.78;100.00;95511.16;10281105;28;20015;-69
2021/10/04 00:26:42;;;;;;;3.65;2.75;;;;;;;8.67;100.00;95508.28;10279621;28;20116;-68
2021/10/04 00:31:43;;;;;;;5.78;3.17;;;;;;;8.66;100.00;95503.19;10278079;28;20035;-75
2021/10/04 00:36:43;;;;;;;4.80;3.67;;;;;;;8.58;100.00;95507.06;10279801;28;20039;-68
2021/10/04 00:41:44;;;;;;;4.70;3.35;;;;;;;8.53;100.00;95515.03;10239926;28;20039;-67
2021/10/04 00:46:45;;;;;;;7.90;3.50;;;;;;;8.49;100.00;95508.50;10239945;28;20130;-67
2021/10/04 00:51:45;;;;;;;6.53;3.05;;;;;;;8.36;100.00;95510.41;10254761;28;20027;-72
2021/10/04 00:56:45;;;;;;;3.63;2.63;;;;;;;8.35;100.00;95503.41;10240649;28;20045;-74
2021/10/04 01:01:46;;;;;;;4.07;2.97;;;;;;;8.39;100.00;95504.56;10237488;28;20032;-75
2021/10/04 01:06:46;;;;;;;9.85;3.22;;;;;;;8.29;100.00;95509.75;10238200;28;20275;-72
2021/10/04 01:11:47;;;;;;;7.10;3.25;;;;;;;8.23;100.00;95505.31;10241720;28;20022;-75
2021/10/04 01:16:48;;;;;;;5.88;3.03;;;;;;;8.16;100.00;95499.31;10277477;28;20034;-68
2021/10/04 01:21:48;;;;;;;4.80;3.53;;;;;;;8.12;100.00;95493.63;10277748;28;20034;-71
2021/10/04 01:26:49;;;;;;;5.22;3.08;;;;;;;8.09;100.00;95495.97;10277966;28;20065;-71
2021/10/04 01:31:49;;;;;;;4.25;3.15;;;;;;;8.04;100.00;95507.38;10249624;28;20126;-72
2021/10/04 01:36:50;;;;;;;6.28;2.90;;;;;;;8.09;100.00;95498.63;10238422;28;20027;-73
2021/10/04 01:41:50;;;;;;;4.60;2.00;;;;;;;8.23;100.00;95493.81;10237930;28;20027;-74
2021/10/04 01:46:50;;;;;;;3.05;2.17;;;;;;;8.12;100.00;95482.09;10292946;28;20038;-74
2021/10/04 01:51:51;;;;;;;4.73;2.03;;;;;;;8.20;100.00;95487.06;10276712;28;20034;-75
2021/10/04 01:56:51;;;;;;;6.88;2.25;;;;;;;8.17;100.00;95483.00;10277021;28;20270;-75
2021/10/04 02:01:52;;;;;;;3.95;2.22;;;;;;;8.26;100.00;95496.84;10276483;28;20417;-73
2021/10/04 02:06:52;;;;;;;8.47;1.77;;;;;;;8.28;100.00;95499.28;10276151;28;20142;-72
2021/10/04 02:11:53;;;;;;;3.95;2.17;;;;;;;8.21;100.00;95492.19;10276483;28;20282;-74
2021/10/04 02:16:53;;;;;;;3.45;2.50;;;;;;;8.06;100.00;95504.47;10246294;28;20038;-72
2021/10/04 02:21:54;;;;;;;6.30;2.10;;;;;;;7.86;100.00;95506.50;10275008;28;20536;-68
2021/10/04 02:26:55;;;;;;;9.57;2.33;;;;;;;7.87;100.00;95513.47;10292298;28;20027;-71
2021/10/04 02:31:55;;;;;;;3.90;2.72;;;;;;;7.84;100.00;95513.13;10265264;28;20042;-68
2021/10/04 02:36:56;;;;;;;3.95;2.92;;;;;;;7.80;100.00;95512.81;10283921;28;20089;-68
2021/10/04 02:41:56;;;;;;;4.30;2.47;;;;;;;7.57;100.00;95513.66;10284148;28;20042;-67
2021/10/04 02:46:57;;;;;;;4.82;2.70;;;;;;;7.37;100.00;95511.34;10267550;28;20085;-73
2021/10/04 02:51:57;;;;;;;7.15;2.17;;;;;;;7.20;100.00;95521.94;10283733;28;20871;-68
2021/10/04 02:56:58;;;;;;;3.78;2.17;;;;;;;7.08;100.00;95518.44;10281893;28;20039;-70
2021/10/04 03:01:58;;;;;;;5.63;3.05;;;;;;;7.00;100.00;95519.56;10283424;28;20022;-72
2021/10/04 03:06:59;;;;;;;3.00;2.45;;;;;;;7.03;100.00;95518.31;10283223;28;20039;-67
2021/10/04 03:11:59;;;;;;;5.90;3.33;;;;;;;6.97;100.00;95520.84;10283743;28;20030;-73
2021/10/04 03:17:03;;;;;;;4.60;2.75;;;;;;;7.05;100.00;95525.06;10282728;28;20826;-68
2021/10/04 03:22:04;;;;;;;2.97;2.58;;;;;;;7.01;100.00;95519.34;10282698;28;20053;-74
2021/10/04 03:27:05;;;;;;;10.93;2.63;;;;;;;6.91;100.00;95518.31;10250874;28;20038;-69
2021/10/04 03:32:06;;;;;;;3.08;2.45;;;;;;;6.91;100.00;95516.44;10257832;28;20047;-72
2021/10/04 03:37:06;;;;;;;3.17;2.33;;;;;;;6.71;100.00;95514.06;10258314;28;20023;-73
2021/10/04 03:42:07;;;;;;;6.07;2.97;;;;;;;6.54;100.00;95521.94;10242132;28;20019;-68
2021/10/04 03:47:07;;;;;;;3.58;2.55;;;;;;;6.47;100.00;95514.03;10272102;28;20030;-72
2021/10/04 03:52:07;;;;;;;3.50;2.60;;;;;;;6.46;100.00;95522.25;10280760;28;20568;-72
2021/10/04 03:57:08;;;;;;;5.28;3.00;;;;;;;6.35;100.00;95521.19;10280405;28;20521;-73
2021/10/04 04:02:12;;;;;;;2.93;2.57;;;;;;;6.32;100.00;95529.63;10265885;28;20045;-68
2021/10/04 04:07:12;;;;;;;4.85;3.05;;;;;;;6.39;100.00;95521.53;10280434;28;20333;-68
2021/10/04 04:12:12;;;;;;;5.40;3.80;;;;;;;6.38;100.00;95530.56;10280677;28;20398;-68
2021/10/04 04:17:13;;;;;;;6.80;3.83;;;;;;;6.28;100.00;95531.13;10245456;28;20501;-69
2021/10/04 04:22:13;;;;;;;9.27;3.25;;;;;;;6.25;100.00;95532.41;10241327;28;20266;-68
2021/10/04 04:27:14;;;;;;;3.00;2.53;;;;;;;6.20;100.00;95542.13;10239305;29;20504;-69
2021/10/04 04:32:14;;;;;;;10.07;3.45;;;;;;;6.20;100.00;95542.94;10239230;28;20044;-73
2021/10/04 04:37:15;;;;;;;6.00;4.07;;;;;;;6.17;100.00;95543.41;10239336;28;20035;-70
2021/10/04 04:42:15;;;;;;;5.97;2.60;;;;;;;6.23;100.00;95539.81;10239121;28;20054;-72
2021/10/04 04:47:16;;;;;;;5.25;3.10;;;;;;;6.21;100.00;95555.25;10236014;28;20592;-74
2021/10/04 04:52:16;;;;;;;6.03;3.60;;;;;;;6.28;100.00;95547.97;10277921;28;20026;-69
2021/10/04 04:57:16;;;;;;;6.80;3.55;;;;;;;6.40;100.00;95550.66;10262320;28;20038;-75
2021/10/04 05:02:18;;;;;;;3.90;2.63;;;;;;;6.46;100.00;95557.78;10277556;28;20362;-73
2021/10/04 05:07:18;;;;;;;5.53;3.28;;;;;;;6.59;100.00;95559.47;10277273;28;20301;-71
2021/10/04 05:12:19;;;;;;;13.68;4.47;;;;;;;6.75;100.00;95563.31;10279457;28;20026;-67
2021/10/04 05:17:19;;;;;;;6.60;3.75;;;;;;;6.97;100.00;95557.47;10278257;28;20019;-70
2021/10/04 05:22:20;;;;;;;8.88;3.72;;;;;;;7.12;100.00;95555.16;10276088;28;20022;-70
2021/10/04 05:27:20;;;;;;;7.72;3.85;;;;;;;7.21;100.00;95568.19;10260866;28;20063;-69
2021/10/04 05:32:20;;;;;;;5.18;3.17;;;;;;;7.52;100.00;95572.38;10276274;28;20051;-70
2021/10/04 05:37:21;;;;;;;4.50;3.53;;;;;;;7.81;100.00;95572.47;10276167;28;20027;-75
2021/10/04 05:42:21;;;;;;;6.60;3.70;;;;;;;8.10;100.00;95568.00;10278338;28;20277;-74
2021/10/04 05:47:22;;;;;;;5.70;2.85;;;;;;;8.24;100.00;95565.06;10275733;28;20286;-70
2021/10/04 05:52:22;;;;;;;5.38;3.20;;;;;;;8.26;100.00;95562.94;10259654;28;20404;-75
2021/10/04 05:57:22;;;;;;;5.32;3.90;;;;;;;8.46;100.00;95560.69;10275533;28;20023;-75
2021/10/04 06:02:23;;;;;;;9.52;3.42;;;;;;;8.71;100.00;95563.03;10258440;28;20024;-74
2021/10/04 06:07:23;;;;;;;5.25;2.47;;;;;;;9.03;100.00;95567.88;10260922;28;20489;-70
2021/10/04 06:12:26;;;;;;;4.25;2.55;;;;;;;9.46;100.00;95567.47;10248483;28;20592;-75
2021/10/04 06:17:27;;;;;;;4.55;2.63;;;;;;;9.74;100.00;95575.41;10220938;28;20027;-74
2021/10/04 06:22:27;;;;;;;3.58;1.77;;;;;;;10.06;100.00;95574.78;10240383;28;20497;-74
2021/10/04 06:27:28;;;;;;;7.10;3.13;;;;;;;10.05;100.00;95570.44;10229990;28;20166;-74
2021/10/04 06:32:28;;;;;;;4.07;2.60;;;;;;;10.49;100.00;95575.03;10235910;28;20303;-71
2021/10/04 06:37:29;;;;;;;5.47;3.15;;;;;;;11.00;100.00;95577.44;10235102;28;20110;-71
2021/10/04 06:42:29;;;;;;;5.78;2.45;;;;;;;11.41;100.00;95591.25;10237391;28;20032;-73
2021/10/04 06:47:30;;;;;;;4.53;2.78;;;;;;;11.64;100.00;95589.28;10251544;28;20028;-70
2021/10/04 06:52:30;;;;;;;10.40;3.45;;;;;;;11.85;100.00;95581.34;10275475;28;20041;-73
2021/10/04 06:57:31;;;;;;;10.63;3.55;;;;;;;12.00;100.00;95583.31;10313347;23;20055;-74
2021/10/04 07:02:31;;;;;;;4.07;2.60;;;;;;;12.19;100.00;95581.81;10275118;28;20027;-69
2021/10/04 07:07:31;;;;;;;7.50;3.30;;;;;;;12.34;100.00;95578.38;10275016;28;20620;-73
2021/10/04 07:12:32;;;;;;;6.37;3.27;;;;;;;12.93;100.00;95585.28;10274468;28;20660;-75
2021/10/04 07:17:32;;;;;;;4.50;3.30;;;;;;;13.41;92.13;95581.59;10280675;28;20297;-68
2021/10/04 07:22:33;;;;;;;4.95;2.47;;;;;;;13.59;87.40;95581.06;10281719;28;20026;-71
2021/10/04 07:27:34;;;;;;;3.35;2.55;;;;;;;13.75;84.42;95576.44;10257987;28;20113;-69
2021/10/04 07:32:35;;;;;;;5.75;2.40;;;;;;;13.98;84.30;95575.06;10287637;28;20074;-74
2021/10/04 07:37:35;;;;;;;3.85;2.35;;;;;;;14.45;82.71;95570.28;10317233;28;20047;-72
2021/10/04 07:42:36;;;;;;;2.80;2.15;;;;;;;14.52;73.12;95564.59;10250336;28;20091;-74
2021/10/04 07:47:37;;;;;;;4.03;2.35;;;;;;;16.32;61.69;95570.53;10265646;28;20031;-73
2021/10/04 07:52:38;;;;;;;7.35;2.50;;;;;;;17.06;56.58;95559.28;10277954;28;20027;-77
2021/10/04 07:57:38;;;;;;;2.65;2.28;;;;;;;16.31;58.24;95563.50;10276999;28;20062;-72
2021/10/04 08:02:39;;;;;;;8.00;2.67;;;;;;;15.57;58.58;95567.19;10278119;28;20027;-75
2021/10/04 08:07:40;;;;;;;5.80;2.58;;;;;;;15.98;60.34;95556.00;10278350;28;20062;-70
2021/10/04 08:12:40;;;;;;;3.35;2.10;;;;;;;16.88;57.92;95545.44;10279575;28;20038;-69
2021/10/04 08:17:41;;;;;;;5.03;2.20;;;;;;;21.08;44.08;95531.28;10280545;28;20018;-71
2021/10/04 08:22:41;;;;;;;3.40;1.80;;;;;;;24.79;36.16;95518.06;10279688;28;20080;-69
2021/10/04 08:27:42;;;;;;;4.43;1.98;;;;;;;26.71;32.92;95519.41;10311104;28;20094;-70
2021/10/04 08:32:45;;;;;;;3.58;1.92;;;;;;;26.14;31.78;95515.22;10304044;28;20093;-74
2021/10/04 08:37:45;;;;;;;4.25;3.33;;;;;;;24.23;35.33;95527.66;10319473;28;20398;-74
2021/10/04 08:42:46;;;;;;;4.13;1.80;;;;;;;22.46;37.17;95511.38;10319080;28;20026;-70
2021/10/04 08:47:47;;;;;;;4.10;2.20;;;;;;;21.25;38.22;95503.97;10320149;28;20118;-72
2021/10/04 08:52:48;;;;;;;4.28;2.05;;;;;;;20.48;40.08;95506.25;10320814;28;20794;-76
2021/10/04 08:57:49;;;;;;;4.40;2.67;;;;;;;20.53;41.96;95505.31;10318465;28;20042;-78
2021/10/04 09:02:58;;;;;;;8.65;2.13;;;;;;;19.71;43.46;95511.06;10319041;28;20120;-71
2021/10/04 09:08:10;;;;;;;6.47;2.67;;;;;;;19.03;45.12;95506.41;10319655;28;20484;-74
2021/10/04 09:13:13;;;;;;;3.47;1.95;;;;;;;19.78;42.51;95493.13;10303628;28;20470;-73
2021/10/04 09:18:20;;;;;;;5.05;2.58;;;;;;;21.03;41.98;95495.91;10319370;28;20138;-73
2021/10/04 09:23:43;;;;;;;2.85;2.08;;;;;;;21.57;38.25;95484.63;10317458;28;20045;-75
2021/10/04 09:28:44;;;;;;;3.72;2.08;;;;;;;22.18;38.21;95473.47;10317719;28;20027;-73
2021/10/04 09:34:07;;;;;;;3.58;2.08;;;;;;;22.51;36.59;95464.66;10317999;28;20396;-75
2021/10/04 09:39:12;;;;;;;2.90;1.95;;;;;;;23.11;35.38;95459.84;10316306;28;20038;-72
2021/10/04 09:44:13;;;;;;;3.90;2.53;;;;;;;23.54;35.51;95444.94;10318308;28;20038;-74
2021/10/04 09:49:13;;;;;;;4.07;1.97;;;;;;;24.16;35.56;95447.00;10316470;28;20538;-74
2021/10/04 09:54:14;;;;;;;4.33;2.33;;;;;;;25.04;33.52;95435.53;10316269;28;20289;-70
2021/10/04 09:59:14;;;;;;;3.03;1.77;;;;;;;26.79;31.18;95426.59;10300453;28;20293;-69
2021/10/04 10:04:20;;;;;;;3.43;1.83;;;;;;;29.07;27.43;95428.56;10300515;28;20069;-73
2021/10/04 10:09:20;;;;;;;7.10;1.60;;;;;;;30.52;24.89;95403.91;10317784;28;20289;-73
2021/10/04 10:14:21;;;;;;;4.53;1.52;;;;;;;33.80;22.52;95409.59;10317644;28;20536;-74
2021/10/04 10:19:26;;;;;;;1.98;0.88;;;;;;;34.41;22.54;95399.97;10316214;28;20026;-69
2021/10/04 10:24:30;;;;;;;2.37;1.23;;;;;;;36.13;20.01;95387.09;10300612;28;20026;-72
2021/10/04 10:29:32;;;;;;;1.73;1.10;;;;;;;36.20;19.54;95379.38;10316302;28;20107;-69
2021/10/04 10:34:36;;;;;;;2.45;1.30;;;;;;;37.00;19.36;95372.38;10316199;28;20567;-70
2021/10/04 10:39:47;;;;;;;2.50;1.20;;;;;;;37.67;18.85;95374.19;10321580;28;20302;-72
2021/10/04 10:44:56;;;;;;;1.88;1.15;;;;;;;37.05;18.62;95364.25;10316502;28;20118;-73
2021/10/04 10:50:12;;;;;;;1.75;1.30;;;;;;;37.58;18.44;95355.13;10317128;28;20542;-74
2021/10/04 10:55:18;;;;;;;;;;;;;;;36.07;19.42;95348.41;10322043;28;20827;-74
2021/10/04 11:00:28;;;;;;;4.72;1.55;;;;;;;36.31;19.31;95337.25;10299702;28;19922;-73
2021/10/04 11:05:38;;;;;;;1.92;1.20;;;;;;;35.55;19.46;95343.22;10318900;28;20061;-72
2021/10/04 11:10:47;;;;;;;2.20;1.00;;;;;;;36.63;19.04;95332.25;10322669;28;20456;-75
2021/10/04 11:15:47;;;;;;;1.98;1.27;;;;;;;36.75;18.00;95320.41;10323617;28;20121;-70
2021/10/04 11:21:00;;;;;;;1.47;0.90;;;;;;;35.31;18.93;95309.59;10322468;28;20061;-73
2021/10/04 11:26:00;;;;;;;2.85;1.30;;;;;;;31.24;22.16;95309.84;10322602;28;20356;-76
2021/10/04 11:31:04;;;;;;;2.17;1.33;;;;;;;28.48;26.44;95308.06;10309830;28;20255;-72
2021/10/04 11:36:07;;;;;;;1.95;1.33;;;;;;;26.40;27.89;95306.03;10281678;28;20409;-70
2021/10/04 11:41:07;;;;;;;4.90;2.38;;;;;;;25.37;29.29;95305.19;10290924;28;20026;-69
2021/10/04 11:46:17;;;;;;;39.50;4.20;;;;;;;24.13;30.69;95313.13;10307454;28;20026;-74
2021/10/04 11:51:25;;;;;;;2.70;1.90;;;;;;;23.47;30.83;95307.53;10304204;28;20281;-70
2021/10/04 11:56:26;;;;;;;2.17;1.83;;;;;;;22.64;32.96;95301.91;10321320;28;20057;-77
2021/10/04 12:01:26;;;;;;;2.38;1.83;;;;;;;22.40;32.28;95302.63;10313085;28;20049;-73
2021/10/04 12:06:28;;;;;;;3.10;1.97;;;;;;;21.98;32.21;95303.38;10319780;28;20030;-75
2021/10/04 12:11:29;;;;;;;3.80;2.08;;;;;;;21.81;32.68;95307.03;10305944;28;20105;-69
2021/10/04 12:16:33;;;;;;;2.58;1.90;;;;;;;21.72;32.97;95300.03;10320794;28;20026;-75
2021/10/04 12:21:37;;;;;;;6.68;2.90;;;;;;;21.78;34.33;95291.28;10319413;28;20114;-68
2021/10/04 12:26:58;;;;;;;2.63;1.98;;;;;;;21.58;34.15;95292.84;10321477;28;20118;-74
2021/10/04 12:32:17;;;;;;;4.30;2.50;;;;;;;21.58;34.37;95284.63;10319618;28;20296;-69
2021/10/04 12:37:25;;;;;;;5.40;2.30;;;;;;;21.43;35.20;95276.97;10319405;28;20037;-74
2021/10/04 12:42:27;;;;;;;4.07;2.42;;;;;;;21.30;35.54;95279.59;10320413;28;20733;-75
2021/10/04 12:47:28;;;;;;;2.88;1.88;;;;;;;21.38;35.93;95268.94;10318534;28;20026;-74
2021/10/04 12:52:30;;;;;;;5.40;2.53;;;;;;;21.29;35.51;95279.91;10318474;28;20073;-70
2021/10/04 12:57:34;;;;;;;4.60;2.53;;;;;;;21.15;35.39;95271.94;10319162;28;20547;-69
2021/10/04 13:02:35;;;;;;;5.30;2.78;;;;;;;21.06;35.38;95279.38;10302671;28;20034;-69
2021/10/04 13:07:36;;;;;;;4.47;2.17;;;;;;;21.08;35.81;95266.19;10318792;28;20056;-67
2021/10/04 13:12:36;;;;;;;3.97;1.83;;;;;;;20.95;35.49;95263.31;10302144;28;20088;-69
2021/10/04 13:17:37;;;;;;;3.60;2.20;;;;;;;21.06;36.21;95263.78;10317875;28;20857;-77
2021/10/04 13:22:37;;;;;;;5.35;1.65;;;;;;;21.08;36.09;95263.44;10318249;28;20035;-71
2021/10/04 13:27:38;;;;;;;3.00;1.87;;;;;;;20.89;35.54;95261.91;10317376;28;20455;-70
2021/10/04 13:32:39;;;;;;;3.53;2.13;;;;;;;20.93;36.88;95256.56;10319023;28;20034;-73
2021/10/04 13:37:40;;;;;;;5.40;2.20;;;;;;;21.01;36.85;95247.56;10319021;28;20034;-73
2021/10/04 13:42:41;;;;;;;3.08;1.80;;;;;;;20.95;36.77;95259.81;10316635;28;20088;-69
2021/10/04 13:47:41;;;;;;;2.22;1.60;;;;;;;20.76;35.87;95257.44;10316507;28;20026;-68
2021/10/04 13:52:41;;;;;;;2.35;2.05;;;;;;;20.69;36.46;95252.47;10316539;28;20015;-72
2021/10/04 13:57:43;;;;;;;5.95;2.17;;;;;;;20.60;36.86;95252.47;10315686;28;20138;-72
2021/10/04 14:02:43;;;;;;;2.75;2.25;;;;;;;20.59;36.60;95250.84;10315568;28;20114;-69
2021/10/04 14:07:44;;;;;;;10.20;2.70;;;;;;;20.52;36.97;95253.28;10299131;28;20030;-73
2021/10/04 14:12:44;;;;;;;2.35;2.15;;;;;;;20.47;37.66;95248.81;10315445;28;20269;-77
2021/10/04 14:17:45;;;;;;;4.17;2.47;;;;;;;20.45;38.34;95242.06;10316760;28;20026;-69
2021/10/04 14:22:46;;;;;;;4.03;2.15;;;;;;;20.48;37.69;95253.16;10315412;28;20935;-68
2021/10/04 14:27:47;;;;;;;5.55;2.47;;;;;;;20.48;37.16;95241.41;10314907;28;20045;-72
2021/10/04 14:32:48;;;;;;;4.55;2.17;;;;;;;20.48;37.62;95244.94;10315246;28;20061;-75
2021/10/04 14:37:51;;;;;;;4.60;2.10;;;;;;;20.45;38.74;95242.06;10317195;28;20471;-73
2021/10/04 14:42:52;;;;;;;3.30;2.40;;;;;;;20.35;41.18;95247.84;10296110;28;20037;-69
2021/10/04 14:47:53;;;;;;;4.70;3.13;;;;;;;20.21;41.87;95254.28;10314514;28;20038;-73
2021/10/04 14:52:53;;;;;;;5.88;3.42;;;;;;;20.16;44.75;95248.97;10314857;28;20449;-71
2021/10/04 14:57:54;;;;;;;5.43;3.90;;;;;;;19.98;43.81;95240.81;10313557;28;20189;-72
2021/10/04 15:02:54;;;;;;;9.35;3.25;;;;;;;19.93;45.42;95242.91;10315307;28;20029;-74
2021/10/04 15:07:54;;;;;;;5.40;3.40;;;;;;;19.82;44.61;95238.88;10280727;28;20026;-73
2021/10/04 15:12:55;;;;;;;7.10;3.90;;;;;;;19.76;43.02;95240.94;10314087;28;20438;-72
2021/10/04 15:17:55;;;;;;;3.93;2.83;;;;;;;19.57;42.72;95239.28;10314129;28;20818;-69
2021/10/04 15:22:56;;;;;;;5.97;4.27;;;;;;;19.35;48.26;95237.47;10298881;28;20357;-73
2021/10/04 15:27:57;;;;;;;11.60;5.53;;;;;;;19.17;51.09;95239.34;10315014;28;20278;-74
2021/10/04 15:32:58;;;;;;;7.32;3.47;;;;;;;18.99;54.62;95241.22;10315198;28;20060;-72
2021/10/04 15:37:58;;;;;;;6.82;3.22;;;;;;;18.74;57.59;95246.19;10318001;28;20044;-74
2021/10/04 15:43:02;;;;;;;10.15;3.05;;;;;;;18.43;56.21;95249.69;10337687;28;20087;-72
2021/10/04 15:48:03;;;;;;;8.00;3.53;;;;;;;18.34;56.64;95253.47;10320895;28;20524;-73
2021/10/04 15:53:04;;;;;;;7.68;5.18;;;;;;;18.20;63.19;95250.81;10321084;28;20021;-73
2021/10/04 15:58:04;;;;;;;3.83;2.92;;;;;;;18.01;56.22;95254.50;10322211;28;20054;-69
2021/10/04 16:03:05;;;;;;;9.20;3.72;;;;;;;17.77;57.60;95249.31;10320834;28;20476;-71
2021/10/04 16:08:11;;;;;;;7.80;4.10;;;;;;;17.58;59.01;95255.72;10320690;28;20026;-68
2021/10/04 16:13:11;;;;;;;8.43;4.38;;;;;;;17.43;60.60;95256.03;10304864;28;20340;-69
2021/10/04 16:18:12;;;;;;;8.98;3.90;;;;;;;17.07;63.84;95257.53;10321729;28;20512;-76
2021/10/04 16:23:13;;;;;;;15.38;6.13;;;;;;;16.82;65.80;95266.16;10315487;28;20031;-73
2021/10/04 16:28:14;;;;;;;13.60;6.50;;;;;;;16.74;67.65;95267.63;10293000;28;20716;-72
2021/10/04 16:33:16;;;;;;;12.73;5.90;;;;;;;16.72;66.82;95281.50;10319707;28;20064;-75
2021/10/04 16:38:17;;;;;;;8.35;5.15;;;;;;;16.69;62.40;95279.41;10314401;28;20045;-73
2021/10/04 16:43:17;;;;;;;11.85;5.63;;;;;;;16.69;61.34;95284.84;10309012;28;20619;-69
2021/10/04 16:48:18;;;;;;;9.93;4.63;;;;;;;16.64;61.58;95293.06;10318240;28;20030;-72
2021/10/04 16:53:18;;;;;;;8.77;4.75;;;;;;;16.56;60.87;95289.13;10279010;28;20023;-69
2021/10/04 16:58:18;;;;;;;6.68;4.55;;;;;;;16.51;61.32;95296.56;10299755;28;20081;-73
2021/10/04 17:03:19;;;;;;;7.20;4.23;;;;;;;16.50;60.53;95287.59;10283652;28;20042;-73
2021/10/04 17:08:20;;;;;;;7.20;3.85;;;;;;;16.45;59.86;95292.28;10276880;28;20054;-69
2021/10/04 17:13:21;;;;;;;7.50;4.07;;;;;;;16.46;58.80;95299.34;10276596;28;20030;-69
2021/10/04 17:18:21;;;;;;;8.30;4.07;;;;;;;16.38;58.85;95300.81;10274701;28;20033;-74
2021/10/04 17:23:21;;;;;;;8.70;4.63;;;;;;;16.32;58.85;95312.84;10276783;28;20858;-69
2021/10/04 17:28:22;;;;;;;6.47;4.37;;;;;;;16.18;63.60;95321.72;10277208;28;20278;-71
2021/10/04 17:33:23;;;;;;;10.95;4.25;;;;;;;15.98;65.65;95314.69;10276482;28;20281;-71
2021/10/04 17:38:23;;;;;;;11.60;5.80;;;;;;;15.39;78.91;95327.63;10301172;28;20034;-68
2021/10/04 17:43:24;;;;;;;6.78;4.70;;;;;;;15.33;81.10;95334.19;10300817;28;20040;-73
2021/10/04 17:48:25;;;;;;;6.68;4.65;;;;;;;14.96;83.01;95341.91;10315234;28;20025;-69
2021/10/04 17:53:26;;;;;;;7.05;4.43;;;;;;;14.90;82.05;95348.44;10316540;28;20029;-65
2021/10/04 17:58:27;;;;;;;11.90;4.97;;;;;;;14.84;81.08;95353.09;10316456;28;20046;-67
2021/10/04 18:03:27;;;;;;;7.07;4.03;;;;;;;14.94;79.99;95356.81;10317145;28;20192;-71
2021/10/04 18:08:27;;;;;;;5.75;4.20;;;;;;;14.89;80.38;95363.09;10316486;28;20029;-68
2021/10/04 18:13:29;;;;;;;8.13;4.03;;;;;;;14.76;82.65;95364.53;10315561;28;20105;-71
2021/10/04 18:18:29;;;;;;;8.43;5.13;;;;;;;14.56;85.08;95362.78;10315280;28;20273;-72
2021/10/04 18:23:31;;;;;;;10.05;5.28;;;;;;;14.47;86.81;95362.59;10315033;28;20018;-73
2021/10/04 18:28:32;;;;;;;7.90;4.85;;;;;;;14.56;84.59;95364.69;10315271;28;20026;-73
2021/10/04 18:33:32;;;;;;;11.25;4.93;;;;;;;14.47;84.37;95381.50;10316222;28;20591;-70
2021/10/04 18:38:33;;;;;;;10.13;4.83;;;;;;;14.36;85.71;95378.06;10314787;28;20488;-68
2021/10/04 18:43:34;;;;;;;8.98;4.65;;;;;;;14.14;89.21;95374.97;10259134;28;20286;-73
2021/10/04 18:48:35;;;;;;;8.00;4.47;;;;;;;14.00;91.07;95378.28;10327623;28;20096;-70
2021/10/04 18:53:35;;;;;;;8.00;4.50;;;;;;;13.94;91.51;95371.31;10315738;28;20088;-67
2021/10/04 18:58:36;;;;;;;9.70;4.78;;;;;;;13.82;92.74;95377.03;10317009;28;20141;-70
2021/10/04 19:03:36;;;;;;;7.20;4.57;;;;;;;13.81;93.45;95385.41;10316178;28;20096;-73
2021/10/04 19:08:37;;;;;;;10.75;5.32;;;;;;;13.70;94.39;95384.63;10318397;28;20270;-75
2021/10/04 19:13:37;;;;;;;8.55;5.07;;;;;;;13.62;96.14;95382.53;10322657;28;20026;-74
2021/10/04 19:18:38;;;;;;;6.68;5.00;;;;;;;13.63;95.50;95386.84;10322530;28;20034;-70
2021/10/04 19:23:38;;;;;;;10.10;4.87;;;;;;;13.56;94.25;95397.13;10322901;28;20117;-70
2021/10/04 19:28:40;;;;;;;10.73;5.00;;;;;;;13.50;94.20;95404.44;10322119;28;20313;-75
2021/10/04 19:33:45;;;;;;;7.38;4.45;;;;;;;13.36;94.29;95398.81;10322053;28;20563;-72
2021/10/04 19:38:49;;;;;;;8.35;5.15;;;;;;;13.20;96.83;95410.69;10321715;28;20034;-68
2021/10/04 19:43:49;;;;;;;12.38;4.40;;;;;;;13.08;97.41;95408.28;10321489;28;20499;-74
2021/10/04 19:48:50;;;;;;;7.27;4.53;;;;;;;13.01;98.16;95422.06;10321955;28;20449;-72
2021/10/04 19:53:52;;;;;;;8.83;5.17;;;;;;;12.91;100.00;95412.09;10321182;28;20031;-69
2021/10/04 19:58:55;;;;;;;11.68;5.45;;;;;;;12.84;100.00;95416.94;10304262;28;20321;-70
2021/10/04 20:03:55;;;;;;;8.20;5.03;;;;;;;12.85;100.00;95423.13;10320499;28;20042;-70
2021/10/04 20:08:55;;;;;;;8.10;5.17;;;;;;;12.81;99.64;95404.81;10321488;28;20038;-74
2021/10/04 20:13:56;;;;;;;8.67;4.60;;;;;;;12.83;97.74;95408.03;10313130;28;20289;-68
2021/10/04 20:18:57;;;;;;;6.67;4.53;;;;;;;12.90;97.37;95407.75;10319569;28;20293;-70
2021/10/04 20:24:03;;;;;;;8.07;4.10;;;;;;;12.87;97.68;95411.00;10301960;28;20286;-70
2021/10/04 20:29:04;;;;;;;10.13;5.45;;;;;;;12.83;99.22;95408.03;10279808;28;20085;-70
2021/10/04 20:34:05;;;;;;;8.15;4.88;;;;;;;12.75;100.00;95411.25;10310968;28;20034;-73
2021/10/04 20:39:05;;;;;;;8.35;4.80;;;;;;;12.53;100.00;95413.41;10303793;28;20061;-71
2021/10/04 20:44:06;;;;;;;7.90;5.20;;;;;;;12.27;100.00;95424.19;10278742;28;20081;-75
2021/10/04 20:49:07;;;;;;;12.30;5.03;;;;;;;12.12;100.00;95414.97;10312311;28;20361;-76
2021/10/04 20:54:08;;;;;;;9.67;4.70;;;;;;;11.98;100.00;95419.25;10318487;28;20425;-74
2021/10/04 20:59:09;;;;;;;11.73;4.80;;;;;;;11.94;100.00;95431.63;10305682;28;20313;-76
2021/10/04 21:04:12;;;;;;;13.10;5.22;;;;;;;11.87;100.00;95433.72;10279142;28;20093;-75
2021/10/04 21:09:12;;;;;;;10.27;5.75;;;;;;;11.80;100.00;95433.97;10280607;28;20034;-74
2021/10/04 21:14:12;;;;;;;8.57;4.68;;;;;;;11.68;100.00;95431.50;10317820;28;20519;-70
2021/10/04 21:19:13;;;;;;;8.77;4.82;;;;;;;11.60;100.00;95438.19;10319205;28;20105;-70
2021/10/04 21:24:13;;;;;;;7.80;4.90;;;;;;;11.72;100.00;95427.22;10293399;28;20045;-70
2021/10/04 21:29:14;;;;;;;8.55;5.30;;;;;;;11.73;100.00;95420.75;10293304;28;20721;-74
2021/10/04 21:34:14;;;;;;;6.90;4.32;;;;;;;11.74;100.00;95418.88;10292818;28;20456;-73
2021/10/04 21:39:15;;;;;;;10.77;4.53;;;;;;;11.73;100.00;95428.81;10307233;28;20036;-70
2021/10/04 21:44:17;;;;;;;8.85;5.15;;;;;;;11.65;100.00;95421.25;10316417;28;20323;-72
2021/10/04 21:49:17;;;;;;;10.93;4.55;;;;;;;11.54;100.00;95422.28;10316915;28;20093;-73
2021/10/04 21:54:17;;;;;;;10.10;5.23;;;;;;;11.60;100.00;95424.72;10317463;28;20190;-72
2021/10/04 21:59:23;;;;;;;9.05;5.03;;;;;;;11.51;100.00;95422.81;10325828;28;20297;-72
2021/10/04 22:14:55;;;;;;;10.52;5.35;;;;;;;11.18;100.00;95430.19;10320114;28;20496;-71
2021/10/04 22:19:55;;;;;;;7.43;5.30;;;;;;;11.21;100.00;95422.38;10316432;28;20034;-68
2021/10/04 22:24:55;;;;;;;8.05;5.13;;;;;;;11.00;100.00;95428.72;10266189;28;20818;-73
2021/10/04 22:29:56;;;;;;;12.60;5.53;;;;;;;10.81;100.00;95414.84;10276254;28;20019;-74
2021/10/04 22:34:56;;;;;;;8.30;5.55;;;;;;;10.77;100.00;95407.31;10275856;28;20348;-73
2021/10/04 22:39:57;;;;;;;12.33;7.13;;;;;;;10.66;100.00;95416.34;10310072;28;20034;-69
2021/10/04 22:44:57;;;;;;;10.05;6.30;;;;;;;10.68;100.00;95414.22;10312434;28;20787;-76
2021/10/04 22:49:58;;;;;;;10.10;6.15;;;;;;;10.59;100.00;95424.63;10322826;28;20030;-72
2021/10/04 22:54:58;;;;;;;10.75;7.07;;;;;;;10.48;100.00;95433.69;10324308;28;20483;-69
2021/10/04 22:59:59;;;;;;;10.87;6.33;;;;;;;10.36;100.00;95433.03;10325810;28;20504;-72
2021/10/04 23:04:59;;;;;;;11.05;6.82;;;;;;;10.27;100.00;95436.13;10323762;28;20273;-72
2021/10/04 23:09:59;;;;;;;13.23;7.20;;;;;;;10.24;100.00;95428.59;10323250;28;20033;-69
2021/10/04 23:15:00;;;;;;;8.77;6.60;;;;;;;10.23;100.00;95429.63;10322709;28;20862;-69
2021/10/04 23:20:00;;;;;;;12.60;6.95;;;;;;;10.21;100.00;95431.78;10322930;28;20041;-70
2021/10/04 23:25:01;;;;;;;13.68;7.90;;;;;;;10.07;100.00;95436.75;10324773;28;20828;-75